Time;durP1;ratioP1;P1;durP2;ratioP2;P2;SDS_P1;SDS_P2;PMS_P1;PMS_P2;Temp;Humidity;BMP_temperature;BMP_pressure;BME280_temperature;BME280_humidity;BME280_pressure;Samples;Min_cycle;Max_cycle;Signal;HPM_P1;HPM_P2
2021/01/29 00:03:39;;;;;;;27.13;13.43;;;;;;;0.40;100.00;97021.22;3651098;80;43036;-20
2021/01/29 00:08:45;;;;;;;26.53;12.43;;;;;;;0.45;100.00;97023.47;3595574;82;43334;-20
2021/01/29 00:13:51;;;;;;;25.30;11.97;;;;;;;0.52;100.00;97017.16;3661178;81;44071;-20
2021/01/29 00:18:57;;;;;;;25.97;11.73;;;;;;;0.54;100.00;97033.77;3657264;80;43303;-20
2021/01/29 00:24:03;;;;;;;26.27;12.27;;;;;;;0.58;100.00;97026.75;3655991;80;44131;-20
2021/01/29 00:29:09;;;;;;;23.40;11.43;;;;;;;0.52;100.00;97008.73;3658563;80;43709;-20
2021/01/29 00:34:15;;;;;;;24.67;11.73;;;;;;;0.55;100.00;97011.10;3698620;80;43537;-20
2021/01/29 00:39:21;;;;;;;22.77;11.10;;;;;;;0.57;100.00;97004.36;3774322;78;44046;-20
2021/01/29 00:44:27;;;;;;;19.77;9.47;;;;;;;0.63;100.00;96995.04;3652438;80;43412;-20
2021/01/29 00:49:33;;;;;;;21.30;10.30;;;;;;;0.64;100.00;96973.69;3623305;82;43685;-20
2021/01/29 00:54:39;;;;;;;26.23;11.10;;;;;;;0.65;100.00;96972.72;3629832;80;43008;-20
2021/01/29 00:59:44;;;;;;;22.50;10.27;;;;;;;0.59;100.00;96971.91;3656363;81;44071;-20
2021/01/29 01:04:54;;;;;;;20.47;10.07;;;;;;;0.61;100.00;96969.51;3738582;78;26373;-20
2021/01/29 01:10:01;;;;;;;22.13;9.90;;;;;;;0.63;100.00;96969.36;3656587;81;44054;-20
2021/01/29 01:15:13;;;;;;;22.67;10.03;;;;;;;0.65;100.00;96958.14;3602748;81;26818;-20
2021/01/29 01:20:27;;;;;;;24.37;10.37;;;;;;;0.67;100.00;96943.42;3723340;80;44044;-20
2021/01/29 01:25:34;;;;;;;22.47;10.43;;;;;;;0.69;100.00;96943.66;3734370;78;44434;-20
2021/01/29 01:30:42;;;;;;;25.03;11.00;;;;;;;0.66;100.00;96933.79;3742607;78;26807;-21
2021/01/29 01:35:50;;;;;;;23.40;9.70;;;;;;;0.60;100.00;96924.57;3725727;78;26867;-21
2021/01/29 01:40:56;;;;;;;21.77;9.63;;;;;;;0.61;100.00;96913.85;3723438;79;44072;-20
2021/01/29 01:46:07;;;;;;;19.83;9.03;;;;;;;0.64;100.00;96903.96;3739343;78;26295;-20
2021/01/29 01:51:21;;;;;;;16.23;8.37;;;;;;;0.65;100.00;96897.69;3787423;78;26457;-20
2021/01/29 01:56:32;;;;;;;16.20;7.63;;;;;;;0.64;100.00;96891.53;3724456;78;43676;-21
2021/01/29 02:01:58;;;;;;;14.97;7.40;;;;;;;0.64;100.00;96872.16;3731400;78;26786;-20
2021/01/29 02:07:29;;;;;;;13.97;6.90;;;;;;;0.66;100.00;96855.61;3680757;80;26361;-21
2021/01/29 02:12:54;;;;;;;14.33;6.87;;;;;;;0.65;100.00;96854.78;3715443;79;26429;-19
2021/01/29 02:18:06;;;;;;;16.73;7.90;;;;;;;0.65;100.00;96842.03;3723099;79;26322;-19
2021/01/29 02:23:59;;;;;;;19.53;9.23;;;;;;;0.63;100.00;96842.66;3760949;78;26733;-20
2021/01/29 02:29:55;;;;;;;20.40;9.57;;;;;;;0.58;100.00;96842.57;3720327;80;26322;-19
2021/01/29 02:35:12;;;;;;;21.43;9.33;;;;;;;0.66;100.00;96834.41;3723219;79;43298;-19
2021/01/29 02:40:21;;;;;;;20.27;8.30;;;;;;;0.61;100.00;96815.80;3773966;78;44093;-20
2021/01/29 02:45:32;;;;;;;15.87;7.63;;;;;;;0.60;100.00;96814.13;3715177;80;42511;-19
2021/01/29 02:50:50;;;;;;;15.40;7.67;;;;;;;0.64;100.00;96812.53;3713878;79;26394;-20
2021/01/29 02:56:27;;;;;;;15.03;7.60;;;;;;;0.57;100.00;96801.64;3741614;78;26878;-19
2021/01/29 03:01:38;;;;;;;14.10;7.50;;;;;;;0.58;100.00;96795.38;3752435;79;26587;-20
2021/01/29 03:06:49;;;;;;;18.17;7.87;;;;;;;0.57;100.00;96790.55;3714393;79;26313;-20
2021/01/29 03:11:59;;;;;;;16.43;8.30;;;;;;;0.54;100.00;96768.80;3696072;78;43368;-19
2021/01/29 03:17:25;;;;;;;20.90;9.80;;;;;;;0.57;100.00;96762.72;3650574;81;27010;-20
2021/01/29 03:22:54;;;;;;;23.33;10.37;;;;;;;0.51;100.00;96747.87;3723786;80;26396;-19
2021/01/29 03:28:21;;;;;;;22.30;9.73;;;;;;;0.47;100.00;96727.45;3657308;80;26780;-20
2021/01/29 03:33:49;;;;;;;25.00;9.53;;;;;;;0.52;100.00;96717.75;3653061;81;26975;-20
2021/01/29 03:39:17;;;;;;;22.63;9.57;;;;;;;0.53;100.00;96673.88;3656909;81;26998;-20
2021/01/29 03:44:46;;;;;;;21.60;9.37;;;;;;;0.47;100.00;96668.34;3687371;80;27015;-20
2021/01/29 03:50:16;;;;;;;21.50;9.20;;;;;;;0.49;100.00;96671.66;3545078;84;26440;-20
2021/01/29 03:55:39;;;;;;;18.97;8.60;;;;;;;0.50;100.00;96671.53;3692740;79;26588;-21
2021/01/29 04:01:03;;;;;;;19.20;8.87;;;;;;;0.50;100.00;96636.23;3689979;79;27779;-21
2021/01/29 04:06:30;;;;;;;16.63;8.43;;;;;;;0.51;100.00;96625.52;3722387;78;26828;-21
2021/01/29 04:11:57;;;;;;;17.87;7.97;;;;;;;0.57;100.00;96614.34;3689086;80;26949;-20
2021/01/29 04:17:21;;;;;;;16.77;8.00;;;;;;;0.50;100.00;96598.67;3650608;80;26377;-20
2021/01/29 04:22:30;;;;;;;19.23;7.87;;;;;;;0.50;100.00;96592.05;3660991;81;43345;-20
2021/01/29 04:27:39;;;;;;;17.00;7.90;;;;;;;0.44;100.00;96589.48;3660943;81;43428;-20
2021/01/29 04:32:48;;;;;;;19.50;8.37;;;;;;;0.42;100.00;96571.57;3680060;80;43373;-19
2021/01/29 04:38:01;;;;;;;18.50;8.43;;;;;;;0.48;100.00;96566.19;3634436;80;43336;-20
2021/01/29 04:43:32;;;;;;;20.60;8.60;;;;;;;0.53;100.00;96576.34;3635500;80;44006;-19
2021/01/29 04:48:40;;;;;;;23.37;9.67;;;;;;;0.54;100.00;96575.38;3665123;79;43677;-19
2021/01/29 04:54:11;;;;;;;22.83;9.27;;;;;;;0.51;100.00;96551.34;3683072;80;44055;-19
2021/01/29 04:59:35;;;;;;;24.37;10.40;;;;;;;0.51;100.00;96543.39;3669476;79;43411;-19
2021/01/29 05:05:06;;;;;;;26.50;10.77;;;;;;;0.46;100.00;96533.70;3688592;80;26445;-19
2021/01/29 05:10:53;;;;;;;27.63;10.83;;;;;;;0.41;100.00;96512.13;3693450;80;26440;-19
2021/01/29 05:16:16;;;;;;;29.90;11.97;;;;;;;0.43;100.00;96492.45;3649661;81;43671;-19
2021/01/29 05:21:45;;;;;;;29.53;10.93;;;;;;;0.44;100.00;96492.80;3607367;81;43701;-19
2021/01/29 05:27:47;;;;;;;30.40;12.33;;;;;;;0.44;100.00;96489.30;3662720;80;43326;-19
2021/01/29 05:33:06;;;;;;;29.63;12.40;;;;;;;0.45;100.00;96486.52;3736360;79;43722;-19
2021/01/29 05:38:18;;;;;;;32.07;12.73;;;;;;;0.50;100.00;96475.95;3766230;78;43692;-19
2021/01/29 05:43:54;;;;;;;32.23;12.73;;;;;;;0.42;100.00;96463.44;3721591;79;44418;-20
2021/01/29 05:49:23;;;;;;;29.47;12.10;;;;;;;0.37;100.00;96447.16;3652853;80;43289;-19
2021/01/29 05:55:04;;;;;;;28.90;12.27;;;;;;;0.35;100.00;96430.58;3719136;79;44641;-19
2021/01/29 06:00:19;;;;;;;26.87;11.73;;;;;;;0.35;100.00;96423.95;3724111;80;43497;-19
2021/01/29 06:05:48;;;;;;;26.20;10.93;;;;;;;0.34;100.00;96406.39;3657405;81;44053;-19
2021/01/29 06:11:06;;;;;;;24.70;10.50;;;;;;;0.31;100.00;96390.31;3653337;80;44062;-19
2021/01/29 06:16:46;;;;;;;24.73;11.33;;;;;;;0.30;100.00;96378.88;3702234;78;44606;-19
2021/01/29 06:22:11;;;;;;;26.03;10.43;;;;;;;0.35;100.00;96362.56;3640301;80;43462;-19
2021/01/29 06:27:50;;;;;;;23.87;10.70;;;;;;;0.35;100.00;96344.02;3609288;81;43064;-19
2021/01/29 06:33:45;;;;;;;22.87;10.40;;;;;;;0.37;100.00;96332.77;3613367;81;43675;-19
2021/01/29 06:39:04;;;;;;;23.87;10.40;;;;;;;0.37;100.00;96317.38;3582487;81;43305;-19
2021/01/29 06:44:17;;;;;;;24.13;9.83;;;;;;;0.37;100.00;96304.14;3682178;78;43458;-19
2021/01/29 06:49:56;;;;;;;23.17;9.13;;;;;;;0.36;100.00;96296.67;3693277;79;43730;-19
2021/01/29 06:55:35;;;;;;;22.00;9.20;;;;;;;0.36;100.00;96287.91;3696714;80;44418;-19
2021/01/29 07:00:56;;;;;;;20.87;8.70;;;;;;;0.37;100.00;96286.41;3690928;79;44122;-18
2021/01/29 07:06:10;;;;;;;22.30;9.30;;;;;;;0.42;100.00;96285.96;3696254;78;44117;-19
2021/01/29 07:11:27;;;;;;;22.40;9.43;;;;;;;0.39;100.00;96277.02;3696463;79;43808;-19
2021/01/29 07:17:00;;;;;;;22.20;9.17;;;;;;;0.45;100.00;96266.66;3692864;78;43493;-19
2021/01/29 07:22:37;;;;;;;23.17;9.00;;;;;;;0.42;100.00;96248.88;3688448;78;43417;-19
2021/01/29 07:27:48;;;;;;;23.20;9.33;;;;;;;0.42;100.00;96248.88;3691454;78;43716;-19
2021/01/29 07:32:58;;;;;;;19.80;8.20;;;;;;;0.45;100.00;96237.98;3693911;80;43706;-19
2021/01/29 07:38:39;;;;;;;21.00;8.53;;;;;;;0.45;100.00;96224.27;3693693;80;44141;-19
2021/01/29 07:43:56;;;;;;;22.93;8.53;;;;;;;0.51;100.00;96223.30;3698298;78;43673;-19
2021/01/29 07:49:10;;;;;;;23.00;8.80;;;;;;;0.48;100.00;96211.20;3701844;78;43717;-19
2021/01/29 07:54:41;;;;;;;20.60;8.80;;;;;;;0.54;100.00;96192.54;3714956;78;43729;-19
2021/01/29 08:00:03;;;;;;;20.63;8.30;;;;;;;0.57;100.00;96182.46;3693843;78;44328;-19
2021/01/29 08:05:20;;;;;;;20.67;8.37;;;;;;;0.63;100.00;96180.20;3704530;78;26884;-19
2021/01/29 08:10:32;;;;;;;20.23;8.63;;;;;;;0.60;100.00;96162.29;3694517;80;43287;-19
2021/01/29 08:15:45;;;;;;;23.00;9.23;;;;;;;0.64;100.00;96143.44;3696683;78;43238;-19
2021/01/29 08:21:18;;;;;;;22.17;8.50;;;;;;;0.71;100.00;96139.98;3693252;78;43404;-19
2021/01/29 08:26:46;;;;;;;22.83;9.37;;;;;;;0.80;100.00;96146.17;3694623;78;44483;-19
2021/01/29 08:32:14;;;;;;;23.60;10.47;;;;;;;0.81;100.00;96143.86;3681205;78;43669;-19
2021/01/29 08:37:44;;;;;;;24.70;9.90;;;;;;;0.83;100.00;96135.27;3705641;78;26977;-19
2021/01/29 08:43:20;;;;;;;24.70;10.57;;;;;;;0.87;100.00;96136.63;3704279;78;42851;-19
2021/01/29 08:48:37;;;;;;;22.87;9.93;;;;;;;0.83;100.00;96123.34;3553946;82;44477;-19
2021/01/29 08:53:59;;;;;;;23.47;10.43;;;;;;;0.87;100.00;96111.92;3565320;81;44071;-20
2021/01/29 08:59:07;;;;;;;23.33;10.30;;;;;;;0.92;100.00;96106.48;3563579;81;43692;-20
2021/01/29 09:04:20;;;;;;;24.97;10.27;;;;;;;0.90;100.00;96101.02;3562274;82;44099;-20
2021/01/29 09:09:30;;;;;;;23.33;10.30;;;;;;;0.92;100.00;96091.91;3623940;81;44036;-20
2021/01/29 09:14:39;;;;;;;19.67;8.97;;;;;;;0.96;100.00;96084.97;3592391;81;44116;-20
2021/01/29 09:19:48;;;;;;;20.50;9.30;;;;;;;0.96;100.00;96079.67;3629730;81;43530;-20
2021/01/29 09:24:59;;;;;;;21.43;9.67;;;;;;;1.01;100.00;96068.08;3659579;80;43475;-19
2021/01/29 09:30:08;;;;;;;22.27;10.10;;;;;;;1.00;100.00;96057.16;3690581;80;44048;-19
2021/01/29 09:35:17;;;;;;;20.17;9.47;;;;;;;1.02;100.00;96045.87;3607930;80;43684;-19
2021/01/29 09:40:27;;;;;;;23.00;9.97;;;;;;;1.04;100.00;96046.55;3656273;80;44153;-19
2021/01/29 09:45:38;;;;;;;21.00;9.77;;;;;;;1.03;100.00;96047.55;3694403;78;43680;-19
2021/01/29 09:50:42;;;;;;;19.93;9.23;;;;;;;1.14;100.00;96044.59;3706669;78;44258;-19
2021/01/29 09:55:56;;;;;;;19.23;8.70;;;;;;;1.26;100.00;96046.95;3696031;78;42711;-19
2021/01/29 10:01:07;;;;;;;16.63;8.40;;;;;;;1.30;100.00;96045.14;3692056;78;43471;-18
2021/01/29 10:06:16;;;;;;;19.00;9.10;;;;;;;1.41;100.00;96047.17;3697205;78;43550;-19
2021/01/29 10:11:25;;;;;;;16.60;7.93;;;;;;;1.53;100.00;96040.53;3685138;78;43646;-19
2021/01/29 10:16:48;;;;;;;14.57;8.10;;;;;;;1.69;100.00;96037.91;3695370;80;43689;-19
2021/01/29 10:22:27;;;;;;;15.97;7.63;;;;;;;1.78;100.00;96018.85;3703092;78;44441;-18
2021/01/29 10:27:38;;;;;;;12.33;7.47;;;;;;;1.81;100.00;96019.02;3697730;78;43668;-20
2021/01/29 10:32:53;;;;;;;11.53;6.63;;;;;;;1.78;100.00;96021.50;3690540;78;43403;-18
2021/01/29 10:38:04;;;;;;;13.10;6.70;;;;;;;1.76;100.00;96011.55;3697595;78;44359;-19
2021/01/29 10:43:18;;;;;;;11.00;6.40;;;;;;;1.69;100.00;96010.56;3706222;78;43431;-19
2021/01/29 10:48:40;;;;;;;13.33;7.37;;;;;;;1.60;100.00;95996.93;3696878;78;43875;-20
2021/01/29 10:53:49;;;;;;;12.90;7.07;;;;;;;1.66;100.00;95989.66;3711050;78;44560;-20
2021/01/29 10:59:00;;;;;;;15.07;7.80;;;;;;;1.63;100.00;95978.03;3705398;78;43833;-19
2021/01/29 11:04:10;;;;;;;10.43;6.53;;;;;;;1.74;100.00;95976.37;3656743;80;44085;-19
2021/01/29 11:09:29;;;;;;;11.63;6.47;;;;;;;1.80;100.00;95977.05;3657319;80;43693;-20
2021/01/29 11:14:40;;;;;;;10.73;6.47;;;;;;;1.90;100.00;95990.13;3656162;80;43754;-19
2021/01/29 11:19:54;;;;;;;11.93;6.87;;;;;;;1.92;100.00;95993.97;3660346;80;43725;-19
2021/01/29 11:25:37;;;;;;;11.63;6.93;;;;;;;1.91;100.00;95993.63;3658519;80;44431;-19
2021/01/29 11:30:54;;;;;;;9.27;5.93;;;;;;;1.92;100.00;95985.48;3592164;80;44094;-20
2021/01/29 11:36:07;;;;;;;10.13;6.37;;;;;;;1.94;100.00;95994.12;3594321;81;43332;-20
2021/01/29 11:41:31;;;;;;;12.23;6.43;;;;;;;1.99;100.00;95990.96;3613092;82;44074;-20
2021/01/29 11:46:41;;;;;;;13.70;7.93;;;;;;;2.00;100.00;95992.11;3618756;80;43317;-20
2021/01/29 11:51:58;;;;;;;13.63;8.20;;;;;;;2.00;100.00;95997.94;3723196;78;43992;-20
2021/01/29 11:57:08;;;;;;;14.73;8.47;;;;;;;2.08;100.00;95999.24;3723819;78;43701;-20
2021/01/29 12:02:24;;;;;;;14.10;7.70;;;;;;;2.10;100.00;96006.55;3725650;78;44003;-20
2021/01/29 12:07:34;;;;;;;13.10;8.40;;;;;;;2.31;100.00;96006.02;3721019;78;43720;-20
2021/01/29 12:12:43;;;;;;;15.70;9.00;;;;;;;2.48;100.00;95999.33;3656792;80;43940;-20
2021/01/29 12:17:55;;;;;;;14.77;8.37;;;;;;;2.50;100.00;96004.49;3723016;79;44015;-20
2021/01/29 12:23:18;;;;;;;15.37;8.10;;;;;;;2.51;100.00;96004.83;3596799;81;44058;-20
2021/01/29 12:28:43;;;;;;;12.13;7.20;;;;;;;2.53;100.00;96006.81;3712384;78;42730;-21
2021/01/29 12:33:53;;;;;;;12.03;7.70;;;;;;;2.50;100.00;96005.82;3723658;78;44090;-20
2021/01/29 12:39:03;;;;;;;13.50;7.73;;;;;;;2.43;100.00;96013.64;3723893;79;43689;-20
2021/01/29 12:44:25;;;;;;;15.80;9.43;;;;;;;2.33;100.00;96024.44;3666280;79;43394;-19
2021/01/29 12:49:38;;;;;;;10.63;6.33;;;;;;;2.16;100.00;96026.30;3613451;81;44115;-19
2021/01/29 12:54:50;;;;;;;10.33;6.23;;;;;;;2.30;100.00;96030.09;3635566;80;43679;-21
2021/01/29 13:00:00;;;;;;;12.50;6.83;;;;;;;2.27;100.00;96029.94;3614207;81;43595;-21
2021/01/29 13:05:14;;;;;;;13.73;7.90;;;;;;;2.23;100.00;96034.42;3693820;80;43770;-21
2021/01/29 13:10:25;;;;;;;12.10;6.50;;;;;;;2.24;100.00;96030.77;3717122;80;44058;-20
2021/01/29 13:15:46;;;;;;;8.70;5.03;;;;;;;2.20;100.00;96032.94;3714181;80;44161;-22
2021/01/29 13:20:56;;;;;;;13.07;6.90;;;;;;;2.26;100.00;96047.38;3716614;78;44078;-22
2021/01/29 13:26:04;;;;;;;14.83;8.37;;;;;;;2.21;100.00;96051.02;3715238;80;43677;-22
2021/01/29 13:31:18;;;;;;;17.90;7.93;;;;;;;2.13;100.00;96055.36;3716201;80;43998;-24
2021/01/29 13:36:31;;;;;;;11.63;6.43;;;;;;;2.07;100.00;96058.66;3720212;78;43251;-23
2021/01/29 13:41:43;;;;;;;14.07;6.57;;;;;;;1.97;100.00;96072.12;3655991;81;43498;-22
2021/01/29 13:46:54;;;;;;;8.83;5.47;;;;;;;1.97;100.00;96080.09;3717083;80;42974;-23
2021/01/29 13:52:04;;;;;;;9.73;6.10;;;;;;;2.06;100.00;96074.77;3691357;79;44048;-23
2021/01/29 13:57:15;;;;;;;9.87;5.33;;;;;;;2.06;100.00;96084.06;3687978;79;44483;-23
2021/01/29 14:02:33;;;;;;;8.83;6.20;;;;;;;2.10;100.00;96092.86;3690690;80;43644;-22
2021/01/29 14:07:41;;;;;;;7.93;5.00;;;;;;;2.15;100.00;96090.55;3691749;79;44575;-24
2021/01/29 14:12:58;;;;;;;8.27;4.47;;;;;;;2.16;100.00;96087.38;3692208;80;43341;-23
2021/01/29 14:18:25;;;;;;;6.93;4.47;;;;;;;2.26;100.00;96087.23;3690053;80;42998;-24
2021/01/29 14:23:36;;;;;;;4.50;2.70;;;;;;;2.31;100.00;96090.19;3689104;79;44054;-24
2021/01/29 14:28:47;;;;;;;3.70;2.77;;;;;;;2.39;100.00;96086.70;3690987;79;43685;-24
2021/01/29 14:34:12;;;;;;;4.87;3.17;;;;;;;2.56;100.00;96092.83;3692315;79;44019;-23
2021/01/29 14:40:02;;;;;;;4.80;3.00;;;;;;;2.51;100.00;96095.18;3691217;80;44093;-22
2021/01/29 14:45:20;;;;;;;5.03;3.33;;;;;;;2.62;100.00;96095.64;3690495;80;44192;-33
2021/01/29 14:50:38;;;;;;;6.47;3.67;;;;;;;2.73;100.00;96094.47;3707527;78;44033;-23
2021/01/29 14:55:53;;;;;;;7.03;3.93;;;;;;;2.73;100.00;96094.47;3717663;79;43727;-22
2021/01/29 15:01:02;;;;;;;4.80;3.60;;;;;;;2.77;100.00;96104.27;3723413;78;43802;-23
2021/01/29 15:06:12;;;;;;;6.63;4.20;;;;;;;2.84;100.00;96105.75;3659142;80;43556;-22
2021/01/29 15:11:23;;;;;;;7.27;3.83;;;;;;;2.84;100.00;96105.23;3617586;81;43011;-23
2021/01/29 15:16:48;;;;;;;7.47;4.23;;;;;;;2.87;100.00;96114.72;3651882;81;43962;-23
2021/01/29 15:21:59;;;;;;;9.17;4.43;;;;;;;2.91;100.00;96118.68;3656497;81;44049;-21
2021/01/29 15:27:07;;;;;;;8.93;5.60;;;;;;;2.89;100.00;96122.00;3593443;81;43717;-22
2021/01/29 15:32:34;;;;;;;8.27;5.10;;;;;;;2.88;100.00;96132.34;3657962;81;43709;-23
2021/01/29 15:38:00;;;;;;;11.90;7.60;;;;;;;2.96;100.00;96125.66;3656721;80;43681;-24
2021/01/29 15:43:12;;;;;;;13.63;8.40;;;;;;;3.08;100.00;96122.97;3598016;81;43364;-23
2021/01/29 15:48:18;;;;;;;13.63;7.23;;;;;;;3.20;100.00;96118.61;3656081;80;43138;-22
2021/01/29 15:53:54;;;;;;;13.43;7.27;;;;;;;3.19;100.00;96127.59;3658999;80;43293;-23
2021/01/29 15:59:04;;;;;;;20.53;6.57;;;;;;;3.27;100.00;96128.06;3602179;81;43398;-23
2021/01/29 16:04:33;;;;;;;15.80;6.33;;;;;;;3.49;100.00;96127.78;3722278;78;43466;-22
2021/01/29 16:09:41;;;;;;;12.10;5.53;;;;;;;3.59;100.00;96135.05;3630959;80;44492;-22
2021/01/29 16:14:47;;;;;;;14.17;5.57;;;;;;;3.69;100.00;96145.02;3630981;81;43393;-23
2021/01/29 16:20:06;;;;;;;17.23;7.93;;;;;;;3.74;100.00;96137.83;3630654;80;44040;-22
2021/01/29 16:25:13;;;;;;;17.90;7.80;;;;;;;3.60;100.00;96138.05;3633800;80;43701;-23
2021/01/29 16:30:25;;;;;;;16.90;5.83;;;;;;;3.59;100.00;96151.55;3725757;78;43339;-21
2021/01/29 16:35:35;;;;;;;19.57;4.50;;;;;;;3.88;100.00;96159.41;3726069;78;43449;-23
2021/01/29 16:40:43;;;;;;;15.00;4.63;;;;;;;4.11;100.00;96146.09;3728711;78;43359;-23
2021/01/29 16:45:52;;;;;;;13.77;4.20;;;;;;;4.20;100.00;96153.02;3660419;80;44102;-23
2021/01/29 16:51:01;;;;;;;17.17;3.90;;;;;;;4.26;100.00;96150.14;3700905;78;43360;-22
2021/01/29 16:56:10;;;;;;;11.70;4.10;;;;;;;4.35;100.00;96148.26;3668106;79;43719;-22
2021/01/29 17:01:20;;;;;;;11.77;4.13;;;;;;;4.42;100.00;96143.38;3666627;80;43672;-22
2021/01/29 17:06:28;;;;;;;11.70;5.27;;;;;;;4.52;100.00;96145.80;3668816;79;44220;-22
2021/01/29 17:11:36;;;;;;;14.10;6.80;;;;;;;4.46;100.00;96146.50;3666317;80;43493;-21
2021/01/29 17:16:46;;;;;;;17.77;8.17;;;;;;;4.28;100.00;96152.98;3670895;80;44036;-21
2021/01/29 17:21:55;;;;;;;12.73;6.30;;;;;;;4.23;100.00;96164.66;3667111;80;43681;-23
2021/01/29 17:27:05;;;;;;;13.07;6.20;;;;;;;4.21;100.00;96162.67;3669423;79;43016;-24
2021/01/29 17:32:13;;;;;;;11.77;5.17;;;;;;;4.19;100.00;96161.20;3674511;79;43479;-23
2021/01/29 17:37:24;;;;;;;11.97;4.57;;;;;;;4.14;100.00;96170.55;3672780;79;43367;-22
2021/01/29 17:42:43;;;;;;;12.43;3.77;;;;;;;4.15;100.00;96168.20;3667043;80;43624;-23
2021/01/29 17:47:48;;;;;;;9.27;2.70;;;;;;;4.18;100.00;96172.86;3675277;79;44069;-23
2021/01/29 17:52:56;;;;;;;7.50;2.67;;;;;;;4.27;100.00;96171.31;3697502;78;43680;-22
2021/01/29 17:58:25;;;;;;;7.37;2.50;;;;;;;4.67;100.00;96179.66;3721038;78;44070;-22
2021/01/29 18:03:48;;;;;;;6.87;2.30;;;;;;;4.68;100.00;96172.83;3761541;79;43562;-22
2021/01/29 18:09:08;;;;;;;7.13;2.13;;;;;;;4.68;100.00;96169.32;3758279;79;43446;-23
2021/01/29 18:14:18;;;;;;;8.33;2.30;;;;;;;4.82;100.00;96166.39;3727312;78;44061;-27
2021/01/29 18:19:25;;;;;;;5.33;2.00;;;;;;;4.74;100.00;96164.09;3763031;78;44036;-22
2021/01/29 18:24:31;;;;;;;4.20;1.90;;;;;;;4.66;100.00;96166.00;3721821;78;43681;-22
2021/01/29 18:29:38;;;;;;;4.20;1.70;;;;;;;4.78;100.00;96160.55;3720812;78;43154;-22
2021/01/29 18:34:47;;;;;;;4.70;1.87;;;;;;;4.72;100.00;96163.44;3759565;78;43478;-22
2021/01/29 18:39:53;;;;;;;6.07;2.00;;;;;;;4.90;100.00;96157.78;3719546;78;43706;-22
2021/01/29 18:44:58;;;;;;;6.40;2.10;;;;;;;4.83;100.00;96169.34;3717877;78;44077;-22
2021/01/29 18:50:05;;;;;;;3.70;1.90;;;;;;;5.02;100.00;96172.01;3714219;78;43413;-20
2021/01/29 18:55:15;;;;;;;4.13;1.83;;;;;;;5.05;100.00;96171.66;3730376;78;44020;-21
2021/01/29 19:00:22;;;;;;;3.90;2.00;;;;;;;5.02;100.00;96166.67;3724629;79;43451;-22
2021/01/29 19:05:31;;;;;;;7.23;2.40;;;;;;;5.10;100.00;96166.61;3661668;80;43677;-21
2021/01/29 19:10:37;;;;;;;8.83;2.30;;;;;;;5.16;100.00;96172.54;3657732;80;44437;-22
2021/01/29 19:15:44;;;;;;;6.03;1.97;;;;;;;5.41;100.00;96176.28;3721615;78;43720;-23
2021/01/29 19:20:51;;;;;;;7.00;2.00;;;;;;;5.24;100.00;96177.78;3659333;80;42853;-22
2021/01/29 19:25:57;;;;;;;4.17;1.60;;;;;;;5.19;100.00;96181.52;3656669;80;44056;-22
2021/01/29 19:31:04;;;;;;;5.33;1.80;;;;;;;5.22;100.00;96181.16;3722472;79;44222;-21
2021/01/29 19:36:11;;;;;;;7.37;3.10;;;;;;;5.22;100.00;96185.66;3723477;78;43661;-22
2021/01/29 19:41:18;;;;;;;4.47;2.10;;;;;;;5.20;100.00;96195.20;3725242;78;43440;-22
2021/01/29 19:46:25;;;;;;;5.63;1.97;;;;;;;5.15;100.00;96192.23;3721989;79;44748;-22
2021/01/29 19:51:33;;;;;;;5.43;1.83;;;;;;;5.01;100.00;96194.36;3722054;78;44650;-21
2021/01/29 19:56:41;;;;;;;6.80;1.73;;;;;;;5.09;100.00;96189.78;3722394;78;43982;-21
2021/01/29 20:01:47;;;;;;;5.70;1.87;;;;;;;5.10;100.00;96195.97;3728622;78;44143;-22
2021/01/29 20:06:53;;;;;;;4.13;1.70;;;;;;;5.24;100.00;96189.80;3722524;79;42665;-22
2021/01/29 20:12:00;;;;;;;4.43;1.73;;;;;;;5.17;100.00;96191.55;3725905;78;44098;-20
2021/01/29 20:17:07;;;;;;;5.83;1.90;;;;;;;5.09;100.00;96194.31;3723916;78;43706;-19
2021/01/29 20:22:13;;;;;;;3.33;1.43;;;;;;;5.03;100.00;96189.68;3723487;79;44073;-21
2021/01/29 20:27:19;;;;;;;4.33;1.90;;;;;;;5.19;100.00;96204.70;3724115;78;43242;-21
2021/01/29 20:32:25;;;;;;;6.83;1.60;;;;;;;5.19;100.00;96194.02;3718564;78;43713;-20
2021/01/29 20:37:31;;;;;;;6.67;1.87;;;;;;;5.24;100.00;96197.80;3726170;78;43672;-20
2021/01/29 20:42:37;;;;;;;5.30;2.27;;;;;;;5.36;100.00;96199.53;3711489;78;43681;-20
2021/01/29 20:47:43;;;;;;;4.77;1.60;;;;;;;5.25;100.00;96197.31;3721490;79;44581;-21
2021/01/29 20:52:51;;;;;;;4.30;1.57;;;;;;;5.12;100.00;96195.77;3707655;79;44440;-21
2021/01/29 20:57:57;;;;;;;3.00;1.50;;;;;;;5.07;100.00;96197.14;3709199;79;43277;-21
2021/01/29 21:03:05;;;;;;;5.67;1.53;;;;;;;5.06;100.00;96208.00;3700121;78;43710;-21
2021/01/29 21:08:11;;;;;;;5.37;1.83;;;;;;;5.09;100.00;96199.13;3721330;78;44063;-22
2021/01/29 21:13:19;;;;;;;5.10;2.10;;;;;;;4.96;100.00;96206.10;3723156;78;44694;-22
2021/01/29 21:18:28;;;;;;;8.10;2.03;;;;;;;4.89;100.00;96208.14;3722876;79;42736;-22
2021/01/29 21:23:34;;;;;;;5.20;2.00;;;;;;;5.01;100.00;96208.55;3721097;78;44040;-22
2021/01/29 21:28:41;;;;;;;7.13;2.33;;;;;;;5.06;100.00;96213.34;3724993;78;44145;-22
2021/01/29 21:33:47;;;;;;;3.90;1.90;;;;;;;5.10;100.00;96213.31;3724721;79;43986;-22
2021/01/29 21:38:52;;;;;;;5.87;1.90;;;;;;;5.01;100.00;96227.72;3724173;78;43645;-22
2021/01/29 21:43:59;;;;;;;7.13;2.33;;;;;;;5.01;100.00;96223.72;3720726;78;43726;-22
2021/01/29 21:49:06;;;;;;;7.20;2.00;;;;;;;5.00;100.00;96228.23;3719261;78;44129;-22
2021/01/29 21:54:13;;;;;;;3.77;1.83;;;;;;;5.04;100.00;96235.37;3697888;78;44077;-22
2021/01/29 21:59:20;;;;;;;5.27;2.00;;;;;;;5.03;100.00;96237.71;3670398;80;43388;-22
2021/01/29 22:04:28;;;;;;;3.13;1.60;;;;;;;5.05;100.00;96235.70;3668375;80;43698;-22
2021/01/29 22:09:35;;;;;;;3.93;1.87;;;;;;;5.15;100.00;96232.78;3665025;79;43698;-22
2021/01/29 22:14:42;;;;;;;2.97;1.60;;;;;;;5.11;100.00;96234.14;3661071;79;43749;-22
2021/01/29 22:19:48;;;;;;;3.67;1.63;;;;;;;5.13;100.00;96230.80;3666407;79;44773;-22
2021/01/29 22:24:54;;;;;;;4.27;1.27;;;;;;;5.22;100.00;96226.55;3672256;79;43705;-22
2021/01/29 22:30:00;;;;;;;2.67;1.40;;;;;;;5.17;100.00;96239.59;3667464;80;44512;-21
2021/01/29 22:35:10;;;;;;;3.60;1.63;;;;;;;5.28;100.00;96238.33;3671148;80;44507;-21
2021/01/29 22:40:19;;;;;;;3.33;1.60;;;;;;;5.30;100.00;96240.81;3675906;80;43262;-21
2021/01/29 22:45:25;;;;;;;2.10;1.37;;;;;;;5.16;100.00;96239.78;3678060;79;43400;-21
2021/01/29 22:50:32;;;;;;;2.90;1.40;;;;;;;5.00;100.00;96235.42;3672957;79;44049;-21
2021/01/29 22:55:38;;;;;;;4.40;1.90;;;;;;;5.13;100.00;96222.79;3584150;81;44085;-21
2021/01/29 23:00:45;;;;;;;3.43;1.50;;;;;;;5.03;100.00;96223.03;3599336;81;44024;-21
2021/01/29 23:05:51;;;;;;;4.13;1.57;;;;;;;4.97;100.00;96231.26;3659127;80;43719;-21
2021/01/29 23:10:56;;;;;;;4.50;1.63;;;;;;;5.00;100.00;96215.41;3665083;80;43786;-20
2021/01/29 23:16:02;;;;;;;4.93;1.40;;;;;;;5.03;100.00;96207.88;3665022;79;44065;-21
2021/01/29 23:21:08;;;;;;;2.80;1.47;;;;;;;5.17;100.00;96210.23;3654466;79;43697;-21
2021/01/29 23:26:14;;;;;;;2.70;1.40;;;;;;;5.12;100.00;96202.45;3663046;79;43728;-21
2021/01/29 23:31:20;;;;;;;4.80;1.63;;;;;;;5.16;100.00;96191.22;3657512;79;43442;-21
2021/01/29 23:36:27;;;;;;;2.80;1.90;;;;;;;5.17;100.00;96189.40;3646156;79;43719;-21
2021/01/29 23:41:32;;;;;;;4.00;1.60;;;;;;;5.14;100.00;96188.42;3653754;79;43412;-21
2021/01/29 23:46:40;;;;;;;4.00;1.70;;;;;;;5.10;100.00;96187.96;3651387;79;44447;-21
2021/01/29 23:51:46;;;;;;;3.63;2.00;;;;;;;5.03;100.00;96177.67;3655656;79;44050;-21
2021/01/29 23:56:51;;;;;;;6.07;1.90;;;;;;;5.01;100.00;96174.35;3694913;78;43353;-21
